createdAt,value
2022-08-25T00:02:13.487Z,100866.94
2022-08-25T00:04:40.477Z,100877.44
2022-08-25T00:07:09.253Z,100872.25
2022-08-25T00:09:36.086Z,100859.91
2022-08-25T00:12:05.237Z,100869.28
2022-08-25T00:14:35.317Z,100873.66
2022-08-25T00:17:02.762Z,100880.88
2022-08-25T00:19:35.030Z,100870.06
2022-08-25T00:22:03.035Z,100868.84
2022-08-25T00:24:29.869Z,100866.69
2022-08-25T00:26:58.181Z,100875.28
2022-08-25T00:29:26.567Z,100871.72
2022-08-25T00:31:55.097Z,100866.81
2022-08-25T00:34:26.742Z,100867.63
2022-08-25T00:36:53.746Z,100866.31
2022-08-25T00:39:22.850Z,100869.06
2022-08-25T00:41:51.554Z,100870.81
2022-08-25T00:44:18.957Z,100868.69
2022-08-25T00:46:55.087Z,100868.06
2022-08-25T00:49:26.208Z,100871.00
2022-08-25T00:52:09.259Z,100870.06
2022-08-25T00:54:49.747Z,100863.56
2022-08-25T00:57:33.916Z,100867.94
2022-08-25T01:00:05.065Z,100860.63
2022-08-25T01:02:31.750Z,100860.94
2022-08-25T01:04:58.900Z,100867.03
2022-08-25T01:07:25.555Z,100867.66
2022-08-25T01:09:53.431Z,100865.81
2022-08-25T01:12:20.622Z,100869.69
2022-08-25T01:14:48.769Z,100866.41
2022-08-25T01:17:17.090Z,100864.78
2022-08-25T01:19:44.157Z,100865.91
2022-08-25T01:22:12.150Z,100868.44
2022-08-25T01:24:44.816Z,100865.59
2022-08-25T01:27:12.127Z,100867.13
2022-08-25T01:29:39.284Z,100860.28
2022-08-25T01:32:09.357Z,100859.50
2022-08-25T01:34:41.255Z,100866.91
2022-08-25T01:37:08.796Z,100869.44
2022-08-25T01:39:39.895Z,100860.97
2022-08-25T01:42:12.272Z,100866.69
2022-08-25T01:44:42.533Z,100871.44
2022-08-25T01:47:09.933Z,100865.75
2022-08-25T01:49:37.026Z,100863.59
2022-08-25T01:52:13.308Z,100867.91
2022-08-25T01:54:39.860Z,100872.16
2022-08-25T01:57:06.834Z,100867.56
2022-08-25T01:59:33.524Z,100869.00
2022-08-25T02:02:00.382Z,100856.16
2022-08-25T02:04:32.239Z,100859.19
2022-08-25T02:07:01.170Z,100860.00
2022-08-25T02:09:28.163Z,100865.31
2022-08-25T02:11:55.241Z,100857.38
2022-08-25T02:14:21.959Z,100857.97
2022-08-25T02:16:51.080Z,100857.16
2022-08-25T02:19:19.732Z,100859.38
2022-08-25T02:21:47.243Z,100863.53
2022-08-25T02:24:14.458Z,100861.94
2022-08-25T02:26:41.439Z,100857.31
2022-08-25T02:29:09.034Z,100854.88
2022-08-25T02:31:36.391Z,100862.59
2022-08-25T02:34:04.351Z,100863.19
2022-08-25T02:36:32.177Z,100856.06
2022-08-25T02:38:59.569Z,100859.44
2022-08-25T02:41:31.028Z,100860.84
2022-08-25T02:43:58.973Z,100854.84
2022-08-25T02:46:25.800Z,100851.88
2022-08-25T02:48:55.349Z,100850.50
2022-08-25T02:51:24.426Z,100855.22
2022-08-25T02:53:51.341Z,100861.28
2022-08-25T02:56:19.148Z,100858.03
2022-08-25T02:58:47.036Z,100850.66
2022-08-25T03:01:14.973Z,100849.03
2022-08-25T03:03:43.462Z,100850.16
2022-08-25T03:06:13.188Z,100849.34
2022-08-25T03:08:42.171Z,100849.94
2022-08-25T03:11:09.764Z,100841.16
2022-08-25T03:13:37.283Z,100843.41
2022-08-25T03:16:05.976Z,100840.97
2022-08-25T03:18:40.267Z,100846.78
2022-08-25T03:21:07.517Z,100835.56
2022-08-25T03:23:34.630Z,100835.88
2022-08-25T03:26:19.758Z,100836.97
2022-08-25T03:28:46.293Z,100831.47
2022-08-25T03:31:13.476Z,100837.59
2022-08-25T03:33:40.316Z,100846.91
2022-08-25T03:36:08.679Z,100831.03
2022-08-25T03:38:38.380Z,100835.72
2022-08-25T03:41:15.606Z,100837.78
2022-08-25T03:43:42.629Z,100832.72
2022-08-25T03:46:16.941Z,100829.19
2022-08-25T03:48:43.570Z,100842.13
2022-08-25T03:51:10.174Z,100843.53
2022-08-25T03:53:36.810Z,100843.81
2022-08-25T03:56:03.590Z,100845.22
2022-08-25T03:58:30.151Z,100843.59
2022-08-25T04:01:00.514Z,100836.75
2022-08-25T04:03:27.289Z,100846.09
2022-08-25T04:05:53.903Z,100847.22
2022-08-25T04:08:25.835Z,100848.63
2022-08-25T04:10:52.444Z,100853.31
2022-08-25T04:13:19.610Z,100856.34
2022-08-25T04:15:46.258Z,100856.13
2022-08-25T04:20:46.578Z,100865.44
2022-08-25T04:23:13.487Z,100860.53
2022-08-25T04:25:43.980Z,100862.75
2022-08-25T04:28:12.859Z,100863.34
2022-08-25T04:30:43.391Z,100869.06
2022-08-25T04:33:09.975Z,100862.84
2022-08-25T04:35:36.569Z,100850.53
2022-08-25T04:38:05.095Z,100848.34
2022-08-25T04:40:33.586Z,100854.13
2022-08-25T04:43:00.297Z,100850.59
2022-08-25T04:45:27.023Z,100843.75
2022-08-25T04:47:55.137Z,100848.44
2022-08-25T04:50:21.856Z,100842.13
2022-08-25T04:52:49.433Z,100845.97
2022-08-25T04:55:16.227Z,100838.88
2022-08-25T04:57:43.394Z,100842.72
2022-08-25T05:00:11.629Z,100837.22
2022-08-25T05:02:38.162Z,100843.81
2022-08-25T05:05:05.122Z,100845.75
2022-08-25T05:07:31.794Z,100855.09
2022-08-25T05:09:58.570Z,100859.75
2022-08-25T05:12:25.259Z,100847.16
2022-08-25T05:14:55.623Z,100838.94
2022-08-25T05:17:22.586Z,100850.72
2022-08-25T05:19:49.252Z,100843.88
2022-08-25T05:22:15.887Z,100845.81
2022-08-25T05:24:42.407Z,100851.00
2022-08-25T05:27:08.972Z,100852.09
2022-08-25T05:29:35.699Z,100850.19
2022-08-25T05:32:02.474Z,100850.19
2022-08-25T05:34:30.259Z,100849.38
2022-08-25T05:37:00.114Z,100845.53
2022-08-25T05:39:27.091Z,100851.81
2022-08-25T05:41:53.705Z,100844.41
2022-08-25T05:44:21.314Z,100837.78
2022-08-25T05:46:48.250Z,100841.38
2022-08-25T05:49:14.781Z,100842.47
2022-08-25T05:51:41.309Z,100836.69
2022-08-25T05:54:07.970Z,100839.44
2022-08-25T05:56:34.613Z,100837.22
2022-08-25T05:59:02.451Z,100835.59
2022-08-25T06:01:50.267Z,100838.88
2022-08-25T06:04:18.132Z,100838.03
2022-08-25T06:06:44.841Z,100833.94
2022-08-25T06:09:11.873Z,100835.59
2022-08-25T06:11:40.374Z,100834.78
2022-08-25T06:14:08.863Z,100837.00
2022-08-25T06:16:35.593Z,100836.75
2022-08-25T06:19:02.281Z,100837.34
2022-08-25T06:21:29.358Z,100826.97
2022-08-25T06:23:56.012Z,100833.56
2022-08-25T06:26:23.508Z,100829.19
2022-08-25T06:28:51.272Z,100831.44
2022-08-25T06:31:19.659Z,100828.94
2022-08-25T06:33:46.459Z,100832.53
2022-08-25T06:36:13.058Z,100826.50
2022-08-25T06:38:39.698Z,100827.63
2022-08-25T06:41:08.038Z,100836.66
2022-08-25T06:43:35.083Z,100826.50
2022-08-25T06:46:18.713Z,100826.63
2022-08-25T06:48:45.402Z,100830.81
2022-08-25T06:51:15.186Z,100834.59
2022-08-25T06:53:43.496Z,100836.75
2022-08-25T06:56:10.969Z,100822.97
2022-08-25T06:58:38.669Z,100821.81
2022-08-25T07:01:22.267Z,100812.84
2022-08-25T07:03:52.629Z,100815.59
2022-08-25T07:06:19.882Z,100813.03
2022-08-25T07:08:48.962Z,100814.50
2022-08-25T07:11:17.589Z,100820.72
2022-08-25T07:13:45.539Z,100820.03
2022-08-25T07:16:12.596Z,100815.50
2022-08-25T07:18:39.287Z,100809.34
2022-08-25T07:21:08.781Z,100803.47
2022-08-25T07:23:36.632Z,100809.63
2022-08-25T07:26:15.747Z,100812.94
2022-08-25T07:28:53.751Z,100812.56
2022-08-25T07:31:21.581Z,100805.75
2022-08-25T07:34:14.849Z,100808.81
2022-08-25T07:36:43.446Z,100799.78
2022-08-25T07:39:10.610Z,100802.34
2022-08-25T07:41:39.507Z,100803.78
2022-08-25T07:44:07.698Z,100799.66
2022-08-25T07:46:34.364Z,100810.16
2022-08-25T07:49:01.002Z,100813.50
2022-08-25T07:54:15.062Z,100820.13
2022-08-25T07:56:43.147Z,100814.38
2022-08-25T07:59:12.598Z,100815.78
2022-08-25T08:01:40.239Z,100814.91
2022-08-25T08:04:07.581Z,100817.13
2022-08-25T08:06:34.275Z,100820.94
2022-08-25T08:09:02.713Z,100810.78
2022-08-25T08:11:34.608Z,100815.94
2022-08-25T08:14:02.236Z,100806.25
2022-08-25T08:16:30.607Z,100805.34
2022-08-25T08:18:58.505Z,100815.53
2022-08-25T08:21:33.029Z,100817.84
2022-08-25T08:24:00.734Z,100813.97
2022-08-25T08:26:48.097Z,100811.75
2022-08-25T08:29:16.435Z,100814.69
2022-08-25T08:31:48.571Z,100807.28
2022-08-25T08:34:16.377Z,100811.84
2022-08-25T08:36:43.312Z,100801.31
2022-08-25T08:39:12.003Z,100806.66
2022-08-25T08:42:17.205Z,100795.81
2022-08-25T08:44:46.555Z,100800.84
2022-08-25T08:47:28.240Z,100805.22
2022-08-25T08:50:34.803Z,100798.53
2022-08-25T08:53:22.829Z,100795.91
2022-08-25T08:55:53.802Z,100781.91
2022-08-25T08:58:34.245Z,100783.34
2022-08-25T09:01:02.294Z,100782.97
2022-08-25T09:03:39.732Z,100785.03
2022-08-25T09:06:17.714Z,100782.38
2022-08-25T09:08:45.167Z,100777.84
2022-08-25T09:11:18.997Z,100772.38
2022-08-25T09:14:09.499Z,100768.81
2022-08-25T09:17:06.118Z,100765.81
2022-08-25T09:19:54.405Z,100762.53
2022-08-25T09:22:35.665Z,100753.34
2022-08-25T09:25:29.587Z,100749.00
2022-08-25T09:28:08.685Z,100747.41
2022-08-25T09:30:59.805Z,100742.63
2022-08-25T09:33:29.040Z,100748.88
2022-08-25T09:35:57.324Z,100750.03
2022-08-25T09:38:26.340Z,100750.34
2022-08-25T09:40:58.931Z,100743.91
2022-08-25T09:43:40.360Z,100747.75
2022-08-25T09:46:27.097Z,100743.72
2022-08-25T09:48:56.687Z,100734.69
2022-08-25T09:51:41.590Z,100735.88
2022-08-25T09:54:15.738Z,100725.97
2022-08-25T09:57:09.275Z,100729.69
2022-08-25T09:59:37.577Z,100725.50
2022-08-25T10:02:24.373Z,100725.06
2022-08-25T10:04:52.319Z,100718.91
2022-08-25T10:07:26.793Z,100718.44
2022-08-25T10:09:56.866Z,100718.56
2022-08-25T10:12:32.189Z,100713.94
2022-08-25T10:19:45.009Z,100700.09
2022-08-25T10:22:20.452Z,100693.34
2022-08-25T10:24:47.360Z,100696.91
2022-08-25T10:27:36.754Z,100692.63
2022-08-25T10:30:11.125Z,100684.97
2022-08-25T10:33:21.296Z,100684.19
2022-08-25T10:36:06.689Z,100677.28
2022-08-25T10:38:36.655Z,100672.66
2022-08-25T10:41:25.040Z,100679.56
2022-08-25T10:44:31.172Z,100664.38
2022-08-25T10:47:13.473Z,100652.84
2022-08-25T10:49:47.522Z,100654.94
2022-08-25T10:52:29.134Z,100643.19
2022-08-25T10:55:09.114Z,100649.13
2022-08-25T10:57:47.313Z,100646.03
2022-08-25T11:00:23.732Z,100650.91
2022-08-25T11:03:22.970Z,100642.47
2022-08-25T11:05:59.206Z,100639.06
2022-08-25T11:08:39.924Z,100628.34
2022-08-25T11:11:30.910Z,100628.72
2022-08-25T11:14:12.289Z,100622.88
2022-08-25T11:16:52.698Z,100617.13
2022-08-25T11:19:26.999Z,100622.41
2022-08-25T11:22:12.554Z,100610.38
2022-08-25T11:24:49.515Z,100600.16
2022-08-25T11:27:24.379Z,100600.31
2022-08-25T11:30:07.038Z,100598.22
2022-08-25T11:32:35.699Z,100585.53
2022-08-25T11:35:05.595Z,100588.94
2022-08-25T11:37:33.192Z,100586.75
2022-08-25T11:40:51.908Z,100582.81
2022-08-25T11:43:45.977Z,100579.81
2022-08-25T11:46:40.390Z,100590.13
2022-08-25T11:49:09.626Z,100575.59
2022-08-25T11:51:47.795Z,100583.25
2022-08-25T11:54:17.633Z,100569.81
2022-08-25T11:57:04.947Z,100567.69
2022-08-25T11:59:49.724Z,100565.34
2022-08-25T12:02:31.198Z,100570.13
2022-08-25T12:04:57.992Z,100563.59
2022-08-25T12:07:47.374Z,100559.75
2022-08-25T12:10:21.803Z,100562.41
2022-08-25T12:12:49.307Z,100558.91
2022-08-25T12:15:42.847Z,100547.84
2022-08-25T12:18:18.722Z,100546.69
2022-08-25T12:20:54.967Z,100552.03
2022-08-25T12:23:44.990Z,100546.84
2022-08-25T12:27:03.349Z,100543.22
2022-08-25T12:29:42.774Z,100545.09
2022-08-25T12:32:41.572Z,100547.25
2022-08-25T12:35:46.513Z,100532.22
2022-08-25T12:38:42.582Z,100529.44
2022-08-25T12:41:12.220Z,100529.53
2022-08-25T12:43:42.396Z,100531.00
2022-08-25T12:46:21.580Z,100524.09
2022-08-25T12:48:58.544Z,100517.06
2022-08-25T12:51:27.865Z,100527.53
2022-08-25T12:54:19.042Z,100523.53
2022-08-25T12:57:03.132Z,100518.13
2022-08-25T12:59:33.070Z,100519.41
2022-08-25T13:02:33.590Z,100509.38
2022-08-25T13:05:16.815Z,100511.84
2022-08-25T13:07:43.293Z,100517.09
2022-08-25T13:10:42.413Z,100512.91
2022-08-25T13:13:08.982Z,100505.84
2022-08-25T13:15:47.023Z,100503.97
2022-08-25T13:18:20.023Z,100497.34
2022-08-25T13:20:54.902Z,100502.25
2022-08-25T13:23:29.204Z,100493.22
2022-08-25T13:25:58.322Z,100489.31
2022-08-25T13:28:32.113Z,100487.53
2022-08-25T13:31:06.208Z,100483.25
2022-08-25T13:33:34.146Z,100475.72
2022-08-25T13:36:20.666Z,100475.00
2022-08-25T13:38:49.140Z,100468.75
2022-08-25T13:41:28.744Z,100476.78
2022-08-25T13:44:00.861Z,100476.28
2022-08-25T13:46:28.785Z,100471.03
2022-08-25T13:49:08.932Z,100475.88
2022-08-25T13:51:36.548Z,100468.91
2022-08-25T13:54:07.202Z,100464.88
2022-08-25T13:56:41.576Z,100462.91
2022-08-25T13:59:23.079Z,100462.91
2022-08-25T14:01:52.313Z,100462.72
2022-08-25T14:04:31.993Z,100459.53
2022-08-25T14:07:26.951Z,100457.19
2022-08-25T14:27:15.512Z,100433.88
2022-08-25T14:29:42.124Z,100440.56
2022-08-25T14:32:09.950Z,100439.63
2022-08-25T14:34:38.636Z,100439.91
2022-08-25T14:37:12.460Z,100432.72
2022-08-25T14:39:42.422Z,100432.16
2022-08-25T14:42:11.758Z,100436.03
2022-08-25T14:44:38.479Z,100433.50
2022-08-25T14:47:07.307Z,100423.72
2022-08-25T14:49:38.262Z,100415.66
2022-08-25T14:52:09.792Z,100418.75
2022-08-25T14:54:37.723Z,100412.16
2022-08-25T14:57:04.479Z,100411.25
2022-08-25T14:59:35.102Z,100406.81
2022-08-25T15:02:02.278Z,100406.00
2022-08-25T15:04:30.130Z,100405.63
2022-08-25T15:07:02.797Z,100405.66
2022-08-25T15:09:33.661Z,100410.06
2022-08-25T15:12:00.847Z,100408.09
2022-08-25T15:14:29.073Z,100408.91
2022-08-25T15:17:00.960Z,100403.78
2022-08-25T15:19:28.503Z,100395.81
2022-08-25T15:21:58.129Z,100409.00
2022-08-25T15:24:27.655Z,100393.13
2022-08-25T15:27:15.222Z,100391.00
2022-08-25T15:29:41.787Z,100389.94
2022-08-25T15:32:08.826Z,100388.63
2022-08-25T15:34:36.678Z,100388.94
2022-08-25T15:37:15.206Z,100393.03
2022-08-25T15:39:43.535Z,100386.34
2022-08-25T15:42:12.335Z,100390.97
2022-08-25T15:44:40.219Z,100390.88
2022-08-25T15:47:08.453Z,100382.41
2022-08-25T15:49:39.545Z,100382.72
2022-08-25T15:52:06.368Z,100382.66
2022-08-25T15:54:33.287Z,100382.19
2022-08-25T15:57:00.272Z,100384.56
2022-08-25T15:59:28.148Z,100376.13
2022-08-25T16:01:55.221Z,100380.91
2022-08-25T16:04:24.621Z,100377.31
2022-08-25T16:06:52.061Z,100367.28
2022-08-25T16:09:23.091Z,100368.84
2022-08-25T16:11:56.168Z,100352.03
2022-08-25T16:14:23.792Z,100352.78
2022-08-25T16:16:51.632Z,100359.03
2022-08-25T16:19:18.324Z,100352.59
2022-08-25T16:21:47.458Z,100354.50
2022-08-25T16:24:14.725Z,100353.63
2022-08-25T16:26:45.134Z,100346.81
2022-08-25T16:29:15.660Z,100346.75
2022-08-25T16:35:11.770Z,100342.44
2022-08-25T16:37:38.369Z,100343.88
2022-08-25T16:40:08.074Z,100337.91
2022-08-25T16:42:35.009Z,100341.84
2022-08-25T16:45:01.657Z,100337.44
2022-08-25T16:47:28.286Z,100337.81
2022-08-25T16:49:55.118Z,100331.03
2022-08-25T16:52:40.687Z,100328.97
2022-08-25T16:55:14.250Z,100332.94
2022-08-25T16:57:46.035Z,100331.31
2022-08-25T17:00:18.217Z,100333.31
2022-08-25T17:02:45.754Z,100334.38
2022-08-25T17:05:12.538Z,100339.06
2022-08-25T17:07:39.297Z,100339.81
2022-08-25T17:10:07.190Z,100343.66
2022-08-25T17:12:39.647Z,100338.06
2022-08-25T17:15:07.556Z,100339.16
2022-08-25T17:17:36.152Z,100337.47
2022-08-25T17:20:04.654Z,100332.63
2022-08-25T17:22:31.571Z,100332.19
2022-08-25T17:25:01.067Z,100341.72
2022-08-25T17:27:28.199Z,100342.88
2022-08-25T17:29:55.881Z,100344.06
2022-08-25T17:32:30.259Z,100342.44
2022-08-25T17:34:57.433Z,100340.84
2022-08-25T17:37:24.620Z,100341.56
2022-08-25T17:39:54.396Z,100340.31
2022-08-25T17:42:31.281Z,100339.09
2022-08-25T17:44:58.138Z,100345.69
2022-08-25T17:47:24.785Z,100340.06
2022-08-25T17:49:51.444Z,100352.28
2022-08-25T17:52:18.755Z,100341.44
2022-08-25T17:54:48.586Z,100342.53
2022-08-25T17:57:16.217Z,100349.53
2022-08-25T17:59:42.920Z,100351.81
2022-08-25T18:02:09.684Z,100348.50
2022-08-25T18:04:38.019Z,100362.69
2022-08-25T18:07:05.834Z,100357.84
2022-08-25T18:09:32.509Z,100354.53
2022-08-25T18:11:59.282Z,100359.16
2022-08-25T18:14:26.746Z,100358.66
2022-08-25T18:16:54.112Z,100359.66
2022-08-25T18:19:21.053Z,100361.06
2022-08-25T18:21:47.920Z,100369.25
2022-08-25T18:24:14.665Z,100363.97
2022-08-25T18:26:41.884Z,100357.78
2022-08-25T18:29:12.525Z,100360.34
2022-08-25T18:31:41.636Z,100354.59
2022-08-25T18:34:11.139Z,100367.03
2022-08-25T18:36:38.850Z,100367.66
2022-08-25T18:39:25.607Z,100366.66
2022-08-25T18:41:52.499Z,100366.56
2022-08-25T18:44:19.121Z,100369.84
2022-08-25T18:46:46.249Z,100373.13
2022-08-25T18:49:15.839Z,100374.53
2022-08-25T18:51:44.714Z,100373.16
2022-08-25T18:54:22.834Z,100365.09
2022-08-25T18:56:51.379Z,100369.28
2022-08-25T18:59:19.176Z,100373.44
2022-08-25T19:01:46.370Z,100375.66
2022-08-25T19:04:15.088Z,100375.91
2022-08-25T19:06:43.986Z,100379.75
2022-08-25T19:09:11.443Z,100370.84
2022-08-25T19:11:38.198Z,100375.81
2022-08-25T19:14:12.065Z,100381.22
2022-08-25T19:16:41.362Z,100379.03
2022-08-25T19:19:11.628Z,100386.00
2022-08-25T19:21:38.871Z,100377.94
2022-08-25T19:24:08.351Z,100383.69
2022-08-25T19:26:36.096Z,100385.09
2022-08-25T19:29:08.900Z,100391.81
2022-08-25T19:31:36.523Z,100394.69
2022-08-25T19:34:03.952Z,100397.69
2022-08-25T19:36:31.358Z,100403.06
2022-08-25T19:39:00.639Z,100392.22
2022-08-25T19:41:29.722Z,100398.44
2022-08-25T19:43:57.588Z,100395.09
2022-08-25T19:46:35.560Z,100394.09
2022-08-25T19:49:09.237Z,100397.41
2022-08-25T19:51:44.116Z,100396.16
2022-08-25T19:54:14.188Z,100394.97
2022-08-25T19:56:43.865Z,100397.97
2022-08-25T19:59:34.334Z,100394.63
2022-08-25T20:02:12.639Z,100394.97
2022-08-25T20:04:42.593Z,100402.34
2022-08-25T20:07:16.978Z,100398.16
2022-08-25T20:09:45.086Z,100393.28
2022-08-25T20:12:12.096Z,100395.78
2022-08-25T20:14:39.558Z,100397.63
2022-08-25T20:17:14.713Z,100396.69
2022-08-25T20:19:52.443Z,100401.31
2022-08-25T20:22:19.989Z,100395.19
2022-08-25T20:24:56.143Z,100401.72
2022-08-25T20:27:30.578Z,100397.31
2022-08-25T20:29:58.090Z,100396.63
2022-08-25T20:32:25.020Z,100406.72
2022-08-25T20:34:53.522Z,100400.75
2022-08-25T20:37:22.555Z,100406.47
2022-08-25T20:39:49.414Z,100412.69
2022-08-25T20:42:16.395Z,100409.28
2022-08-25T20:44:42.961Z,100407.19
2022-08-25T20:47:10.808Z,100409.81
2022-08-25T20:49:39.587Z,100410.03
2022-08-25T20:52:07.732Z,100407.59
2022-08-25T20:54:34.865Z,100399.19
2022-08-25T20:57:02.577Z,100412.53
2022-08-25T20:59:29.783Z,100406.84
2022-08-25T21:01:56.854Z,100408.38
2022-08-25T21:04:26.292Z,100400.38
2022-08-25T21:06:53.221Z,100408.06
2022-08-25T21:09:23.064Z,100410.03
2022-08-25T21:11:55.972Z,100407.94
2022-08-25T21:14:24.108Z,100405.25
2022-08-25T21:16:50.980Z,100401.19
2022-08-25T21:19:26.676Z,100408.19
2022-08-25T21:22:00.030Z,100401.69
2022-08-25T21:24:28.381Z,100402.38
2022-08-25T21:26:56.747Z,100401.41
2022-08-25T21:29:25.934Z,100401.72
2022-08-25T21:31:55.667Z,100397.22
2022-08-25T21:34:22.298Z,100396.72
2022-08-25T21:36:49.101Z,100393.84
2022-08-25T21:39:15.754Z,100392.06
2022-08-25T21:41:44.561Z,100397.16
2022-08-25T21:44:13.167Z,100400.56
2022-08-25T21:46:41.241Z,100398.47
2022-08-25T21:49:08.795Z,100399.59
2022-08-25T21:51:42.667Z,100396.66
2022-08-25T21:54:16.040Z,100397.31
2022-08-25T21:56:54.063Z,100397.31
2022-08-25T21:59:32.072Z,100395.88
2022-08-25T22:02:05.042Z,100389.59
2022-08-25T22:04:32.409Z,100398.88
2022-08-25T22:06:59.313Z,100387.19
2022-08-25T22:09:26.640Z,100387.84
2022-08-25T22:11:55.685Z,100388.50
2022-08-25T22:14:23.722Z,100384.81
2022-08-25T22:16:50.642Z,100376.81
2022-08-25T22:19:17.498Z,100382.22
2022-08-25T22:21:45.038Z,100378.97
2022-08-25T22:24:12.013Z,100384.03
2022-08-25T22:26:39.664Z,100373.97
2022-08-25T22:29:06.550Z,100378.69
2022-08-25T22:31:33.812Z,100376.56
2022-08-25T22:34:00.650Z,100372.19
2022-08-25T22:36:35.504Z,100373.63
2022-08-25T22:39:04.373Z,100378.84
2022-08-25T22:41:31.627Z,100372.84
2022-08-25T22:44:00.510Z,100377.22
2022-08-25T22:46:32.540Z,100377.22
2022-08-25T22:48:59.960Z,100377.91
2022-08-25T22:51:31.576Z,100373.03
2022-08-25T22:53:59.519Z,100370.59
2022-08-25T22:56:32.681Z,100375.13
2022-08-25T22:59:02.877Z,100366.53
2022-08-25T23:01:31.965Z,100370.78
2022-08-25T23:04:00.985Z,100371.59
2022-08-25T23:06:29.178Z,100371.59
2022-08-25T23:08:56.315Z,100377.13
2022-08-25T23:11:24.556Z,100377.91
2022-08-25T23:13:55.327Z,100374.19
2022-08-25T23:16:22.676Z,100370.47
2022-08-25T23:18:49.399Z,100374.34
2022-08-25T23:21:35.323Z,100374.03
2022-08-25T23:24:08.891Z,100372.88
2022-08-25T23:26:38.075Z,100369.63
2022-08-25T23:29:18.006Z,100367.72
2022-08-25T23:31:47.118Z,100367.03
2022-08-25T23:34:16.594Z,100364.94
2022-08-25T23:36:43.798Z,100363.31
2022-08-25T23:39:11.396Z,100356.69
2022-08-25T23:41:38.323Z,100357.81
2022-08-25T23:44:05.815Z,100356.69
2022-08-25T23:46:35.078Z,100352.63
2022-08-25T23:49:03.972Z,100347.91
2022-08-25T23:51:37.341Z,100350.16
2022-08-25T23:54:09.427Z,100342.38
2022-08-25T23:56:44.730Z,100346.28
2022-08-25T23:59:18.140Z,100339.16
